Time;durP1;ratioP1;P1;durP2;ratioP2;P2;SDS_P1;SDS_P2;PMS_P1;PMS_P2;Temp;Humidity;BMP_temperature;BMP_pressure;BME280_temperature;BME280_humidity;BME280_pressure;Samples;Min_cycle;Max_cycle;Signal;HPM_P1;HPM_P2
2022/04/22 00:03:18;;;;;;;13.05;9.48;;;;;;;7.65;74.24;100680.03;10435940;28;20041;-76
2022/04/22 00:08:21;;;;;;;13.68;9.13;;;;;;;7.68;74.84;100671.50;10438067;28;20045;-75
2022/04/22 00:13:22;;;;;;;16.48;9.98;;;;;;;7.64;74.33;100668.72;10450175;28;20826;-76
2022/04/22 00:18:23;;;;;;;12.57;9.38;;;;;;;7.57;75.26;100670.91;10439282;28;20072;-75
2022/04/22 00:23:24;;;;;;;14.85;9.73;;;;;;;7.54;75.53;100670.72;10453191;28;20057;-75
2022/04/22 00:28:24;;;;;;;16.10;10.60;;;;;;;7.49;76.33;100666.16;10419646;28;20040;-75
2022/04/22 00:33:25;;;;;;;13.85;10.32;;;;;;;7.55;76.21;100664.72;10417479;28;20037;-75
2022/04/22 00:38:25;;;;;;;13.98;10.70;;;;;;;7.44;76.48;100665.00;10454856;28;20086;-75
2022/04/22 00:43:26;;;;;;;15.20;10.75;;;;;;;7.26;76.66;100669.16;10431516;28;20091;-75
2022/04/22 00:48:27;;;;;;;16.10;10.82;;;;;;;7.05;77.18;100656.69;10430051;28;20033;-75
2022/04/22 00:53:27;;;;;;;15.68;10.50;;;;;;;6.90;78.40;100652.38;10454200;28;20064;-75
2022/04/22 00:58:28;;;;;;;18.92;13.43;;;;;;;7.06;78.89;100645.47;10437936;28;20073;-75
2022/04/22 01:03:28;;;;;;;16.92;13.25;;;;;;;6.97;79.21;100648.41;10454283;28;20073;-75
2022/04/22 01:13:48;;;;;;;16.73;11.73;;;;;;;6.98;79.12;100642.41;10437587;28;20029;-75
2022/04/22 01:18:48;;;;;;;15.98;11.20;;;;;;;6.89;80.07;100634.03;10436132;28;20126;-75
2022/04/22 01:23:49;;;;;;;19.35;13.35;;;;;;;6.88;80.41;100640.06;10413701;28;20453;-75
2022/04/22 01:28:50;;;;;;;19.63;14.70;;;;;;;6.81;79.77;100632.69;10402524;28;20041;-75
2022/04/22 01:33:51;;;;;;;17.77;13.40;;;;;;;6.64;80.49;100630.00;10391105;28;20036;-75
2022/04/22 01:38:51;;;;;;;22.48;13.95;;;;;;;6.58;80.67;100625.34;10428108;28;20392;-75
2022/04/22 01:43:52;;;;;;;22.40;16.08;;;;;;;6.75;81.28;100628.94;10451149;28;20028;-75
2022/04/22 01:48:52;;;;;;;20.15;14.05;;;;;;;6.51;81.35;100628.38;10452693;28;20067;-75
2022/04/22 01:53:53;;;;;;;22.63;14.02;;;;;;;6.37;82.11;100629.25;10415473;28;20118;-75
2022/04/22 01:58:53;;;;;;;20.20;14.43;;;;;;;6.27;82.54;100623.50;10453555;28;20483;-75
2022/04/22 02:03:54;;;;;;;22.05;14.95;;;;;;;6.30;82.76;100627.97;10444514;28;20049;-75
2022/04/22 02:08:55;;;;;;;21.48;17.05;;;;;;;6.20;83.20;100630.81;10412870;28;20041;-75
2022/04/22 02:13:55;;;;;;;25.45;16.30;;;;;;;6.18;83.47;100633.31;10423848;28;20041;-75
2022/04/22 02:18:57;;;;;;;21.77;14.68;;;;;;;6.11;83.81;100619.03;10412772;28;20069;-75
2022/04/22 02:23:57;;;;;;;23.95;16.17;;;;;;;5.96;83.82;100618.06;10390387;28;20045;-76
2022/04/22 02:28:58;;;;;;;23.00;16.08;;;;;;;5.88;84.75;100612.41;10449252;28;20061;-75
2022/04/22 02:33:58;;;;;;;24.52;17.30;;;;;;;6.00;85.60;100608.00;10438137;28;20117;-75
2022/04/22 02:38:59;;;;;;;23.15;17.00;;;;;;;5.98;85.21;100606.06;10414524;28;20539;-76
2022/04/22 02:49:18;;;;;;;27.30;18.70;;;;;;;5.71;85.48;100603.53;10448190;28;20033;-76
2022/04/22 02:54:19;;;;;;;26.35;17.08;;;;;;;5.61;86.09;100603.75;10433764;28;20036;-75
2022/04/22 02:59:19;;;;;;;25.85;18.25;;;;;;;5.73;86.85;100605.44;10450122;28;20075;-75
2022/04/22 03:04:20;;;;;;;22.90;16.98;;;;;;;5.75;85.97;100602.91;10434488;28;20057;-75
2022/04/22 03:09:20;;;;;;;22.80;15.80;;;;;;;5.76;86.73;100596.94;10458816;28;20779;-75
2022/04/22 03:14:20;;;;;;;27.77;16.15;;;;;;;5.67;87.06;100598.94;10438459;28;20053;-75
2022/04/22 03:19:21;;;;;;;22.70;15.00;;;;;;;5.58;86.88;100588.88;10433602;28;20481;-75
2022/04/22 03:24:21;;;;;;;26.05;18.30;;;;;;;5.56;87.45;100585.31;10411214;28;20116;-78
2022/04/22 03:29:22;;;;;;;22.10;16.65;;;;;;;5.53;87.54;100586.00;10443532;28;20068;-76
2022/04/22 03:34:22;;;;;;;26.88;19.20;;;;;;;5.34;87.52;100583.94;10455925;28;20495;-75
2022/04/22 03:39:23;;;;;;;25.45;18.63;;;;;;;5.44;88.43;100582.81;10439924;28;20075;-76
2022/04/22 03:44:23;;;;;;;36.33;22.40;;;;;;;5.37;88.87;100575.44;10449734;28;20061;-76
2022/04/22 03:49:24;;;;;;;27.08;19.15;;;;;;;5.54;89.17;100574.81;10437260;28;20037;-75
2022/04/22 03:54:25;;;;;;;23.63;18.83;;;;;;;5.47;89.50;100575.22;10399924;28;20123;-76
2022/04/22 03:59:25;;;;;;;24.13;18.23;;;;;;;5.42;89.14;100567.16;10433589;28;20074;-76
2022/04/22 04:04:26;;;;;;;25.38;17.10;;;;;;;5.47;90.22;100575.22;10458861;28;20503;-77
2022/04/22 04:25:24;;;;;;;25.70;17.65;;;;;;;6.35;87.90;100564.16;10414581;28;20025;-75
2022/04/22 04:30:27;;;;;;;30.58;19.27;;;;;;;6.46;87.28;100563.09;10430680;28;20509;-75
2022/04/22 04:35:28;;;;;;;28.73;19.85;;;;;;;6.58;86.41;100565.53;10453434;28;20029;-75
2022/04/22 04:40:28;;;;;;;27.02;17.45;;;;;;;6.73;86.44;100559.44;10431160;28;20068;-76
2022/04/22 04:45:29;;;;;;;24.30;15.70;;;;;;;7.02;85.95;100555.91;10387684;28;20029;-75
2022/04/22 04:50:30;;;;;;;25.13;16.67;;;;;;;7.30;84.63;100561.78;10450632;28;20025;-75
2022/04/22 04:55:34;;;;;;;20.17;16.33;;;;;;;7.58;83.67;100556.38;10408567;28;20037;-77
2022/04/22 05:00:35;;;;;;;25.75;17.55;;;;;;;7.83;82.42;100549.88;10444987;28;20037;-76
2022/04/22 05:05:36;;;;;;;24.95;17.13;;;;;;;8.02;81.40;100540.44;10403226;28;20052;-76
2022/04/22 05:10:40;;;;;;;25.30;15.70;;;;;;;8.30;79.24;100552.31;10432836;28;20037;-76
2022/04/22 05:15:43;;;;;;;24.52;14.88;;;;;;;8.49;78.85;100549.88;10403702;28;20504;-76
2022/04/22 05:20:44;;;;;;;26.52;16.00;;;;;;;8.78;77.26;100552.16;10433129;28;20045;-76
2022/04/22 05:25:45;;;;;;;25.58;14.55;;;;;;;8.83;76.54;100558.50;10433663;28;20039;-76
2022/04/22 05:36:06;;;;;;;22.38;15.52;;;;;;;8.77;76.69;100558.19;10423596;28;20120;-75
2022/04/22 05:41:06;;;;;;;24.33;14.13;;;;;;;9.06;75.60;100556.13;10431573;28;20044;-75
2022/04/22 05:46:06;;;;;;;21.25;14.05;;;;;;;9.50;74.47;100559.06;10435065;28;20021;-75
2022/04/22 05:51:07;;;;;;;20.83;13.45;;;;;;;10.59;71.98;100559.59;10439782;28;20128;-75
2022/04/22 05:56:07;;;;;;;24.60;14.25;;;;;;;11.98;64.89;100545.81;10450594;28;20565;-75
2022/04/22 06:01:10;;;;;;;19.85;12.65;;;;;;;13.04;60.61;100537.22;10420797;28;20071;-75
2022/04/22 06:06:11;;;;;;;21.95;13.90;;;;;;;13.85;59.56;100544.06;10434453;28;20057;-75
2022/04/22 06:11:11;;;;;;;17.23;13.27;;;;;;;14.98;54.56;100547.97;10431908;28;20064;-75
2022/04/22 06:16:12;;;;;;;20.88;13.77;;;;;;;15.54;53.58;100543.13;10430967;28;20547;-76
2022/04/22 06:21:12;;;;;;;18.80;13.20;;;;;;;16.59;50.68;100544.31;10408867;28;20037;-76
2022/04/22 06:26:13;;;;;;;18.25;12.70;;;;;;;16.16;51.51;100531.22;10409407;28;20065;-76
2022/04/22 06:31:13;;;;;;;17.70;12.90;;;;;;;16.86;50.13;100532.44;10449973;28;20572;-76
2022/04/22 06:36:14;;;;;;;20.88;14.45;;;;;;;17.48;46.92;100530.78;10436283;28;20044;-74
2022/04/22 06:46:33;;;;;;;18.70;14.68;;;;;;;17.59;46.59;100536.22;10420707;28;20053;-73
2022/04/22 06:51:34;;;;;;;19.23;13.93;;;;;;;17.71;46.49;100533.75;10437763;28;20067;-73
2022/04/22 06:56:36;;;;;;;19.73;14.57;;;;;;;18.25;46.09;100525.56;10439200;28;20510;-73
2022/04/22 07:01:38;;;;;;;23.23;15.70;;;;;;;18.52;45.39;100517.88;10434346;28;20480;-74
2022/04/22 07:06:38;;;;;;;20.17;15.47;;;;;;;18.64;44.44;100520.63;10475370;28;20468;-74
2022/04/22 07:11:41;;;;;;;17.95;15.07;;;;;;;18.73;45.69;100518.06;10477760;28;20302;-74
2022/04/22 07:16:43;;;;;;;22.67;15.20;;;;;;;18.60;44.26;100518.84;10466098;28;20036;-74
2022/04/22 07:21:43;;;;;;;;;;;;;;;18.97;44.24;100511.22;10480639;28;20053;-74
2022/04/22 07:26:44;;;;;;;24.02;17.52;;;;;;;18.78;44.21;100515.47;10480720;28;20337;-77
2022/04/22 07:31:45;;;;;;;23.25;17.80;;;;;;;18.18;44.96;100514.00;10472471;28;20480;-76
2022/04/22 07:36:45;;;;;;;24.70;18.73;;;;;;;16.98;48.10;100518.59;10470571;28;20051;-77
2022/04/22 07:41:46;;;;;;;21.77;17.67;;;;;;;15.13;52.39;100509.66;10478318;28;20044;-76
2022/04/22 07:46:47;;;;;;;23.30;18.23;;;;;;;15.91;52.82;100508.72;10496203;28;20043;-76
2022/04/22 07:51:47;;;;;;;23.65;17.90;;;;;;;18.58;46.38;100499.38;10463281;28;20469;-76
2022/04/22 07:56:48;;;;;;;26.48;18.13;;;;;;;18.13;46.02;100494.53;10476533;28;20037;-75
2022/04/22 08:01:49;;;;;;;27.75;18.98;;;;;;;15.53;52.33;100497.38;10499144;28;20109;-75
2022/04/22 08:06:50;;;;;;;28.08;17.42;;;;;;;13.89;57.39;100504.75;10448114;28;20049;-76
2022/04/22 08:11:50;;;;;;;23.08;15.45;;;;;;;13.41;58.88;100498.06;10446436;28;20127;-76
2022/04/22 08:16:51;;;;;;;22.38;16.05;;;;;;;14.62;56.13;100482.97;10415238;28;20489;-75
2022/04/22 08:21:52;;;;;;;17.92;13.02;;;;;;;18.76;46.28;100467.72;10397353;28;20069;-76
2022/04/22 08:26:52;;;;;;;20.27;13.95;;;;;;;19.11;43.14;100471.53;10435972;28;20039;-77
2022/04/22 08:31:54;;;;;;;21.92;13.95;;;;;;;16.10;49.77;100476.56;10421852;28;20116;-76
2022/04/22 08:36:54;;;;;;;19.97;13.30;;;;;;;15.17;53.71;100479.88;10414855;28;20032;-75
2022/04/22 08:41:55;;;;;;;17.00;11.77;;;;;;;14.19;54.28;100487.13;10364545;28;20056;-75
2022/04/22 08:52:15;;;;;;;17.20;13.15;;;;;;;13.67;55.80;100479.56;10419045;28;20037;-76
2022/04/22 08:57:15;;;;;;;14.30;10.73;;;;;;;13.09;56.58;100484.81;10413203;28;20278;-78
2022/04/22 09:02:19;;;;;;;18.23;13.85;;;;;;;12.71;58.22;100474.88;10398520;28;20073;-78
2022/04/22 09:07:22;;;;;;;23.35;12.90;;;;;;;12.69;57.99;100467.78;10453560;28;20095;-77
2022/04/22 09:12:24;;;;;;;18.88;11.80;;;;;;;13.10;57.54;100465.59;10434023;28;20037;-76
2022/04/22 09:17:32;;;;;;;16.05;10.55;;;;;;;12.96;54.95;100466.88;10403491;28;20048;-76
2022/04/22 09:22:37;;;;;;;16.40;11.55;;;;;;;12.76;57.80;100464.53;10440704;28;20059;-76
2022/04/22 09:27:43;;;;;;;17.38;13.60;;;;;;;13.15;56.71;100447.34;10436037;28;20082;-75
2022/04/22 09:32:45;;;;;;;18.75;12.98;;;;;;;13.34;57.64;100452.31;10452205;28;20389;-74
2022/04/22 09:43:11;;;;;;;15.48;11.13;;;;;;;13.73;55.76;100444.69;10417621;28;20025;-75
2022/04/22 09:48:13;;;;;;;13.80;11.23;;;;;;;15.95;50.50;100428.75;10385157;28;20599;-73
2022/04/22 09:53:17;;;;;;;12.45;10.65;;;;;;;18.55;43.33;100412.81;10401649;28;20061;-74
2022/04/22 09:58:25;;;;;;;14.05;10.35;;;;;;;17.12;45.13;100420.97;10383484;28;20121;-77
2022/04/22 10:03:27;;;;;;;12.00;9.10;;;;;;;15.97;48.90;100416.47;10395930;28;20574;-75
2022/04/22 10:08:35;;;;;;;17.02;10.00;;;;;;;16.61;48.63;100402.59;10459421;28;20036;-75
2022/04/22 10:13:40;;;;;;;14.13;11.25;;;;;;;15.36;50.68;100396.84;10477412;28;20041;-75
2022/04/22 10:18:42;;;;;;;12.52;8.82;;;;;;;15.03;51.71;100397.00;10464485;28;20112;-75
2022/04/22 10:23:44;;;;;;;11.77;7.80;;;;;;;14.66;50.53;100389.13;10471474;28;20107;-74
2022/04/22 10:28:46;;;;;;;13.27;6.93;;;;;;;14.17;53.07;100391.44;10487784;28;20032;-76
2022/04/22 10:33:46;;;;;;;12.57;8.50;;;;;;;14.17;51.55;100394.06;10480795;28;20025;-77
2022/04/22 10:38:48;;;;;;;13.05;7.80;;;;;;;14.06;52.71;100391.19;10500463;28;20383;-75
2022/04/22 10:49:14;;;;;;;;;;;;;;;14.65;51.13;100385.59;10458518;28;20108;-74
2022/04/22 10:54:14;;;;;;;9.73;7.47;;;;;;;14.56;50.69;100381.88;10499393;28;19982;-76
2022/04/22 10:59:21;;;;;;;12.63;7.97;;;;;;;14.50;51.10;100379.97;10488763;28;20082;-76
2022/04/22 11:04:28;;;;;;;12.82;7.82;;;;;;;14.54;50.57;100377.47;10491409;28;20049;-77
2022/04/22 11:09:30;;;;;;;11.95;7.00;;;;;;;14.50;49.89;100364.16;10415317;28;20048;-77
2022/04/22 11:14:33;;;;;;;12.23;9.17;;;;;;;15.15;49.79;100365.63;10417758;28;20206;-77
2022/04/22 11:19:35;;;;;;;12.00;8.30;;;;;;;15.64;48.68;100359.56;10403868;28;20486;-77
2022/04/22 11:24:36;;;;;;;13.13;8.45;;;;;;;15.73;48.84;100348.28;10408752;28;20485;-77
2022/04/22 11:29:38;;;;;;;10.85;6.97;;;;;;;15.71;48.62;100362.34;10381821;28;20073;-79
2022/04/22 11:34:53;;;;;;;14.65;8.27;;;;;;;15.89;47.90;100354.75;10410379;28;20017;-78
2022/04/22 11:39:54;;;;;;;12.93;7.82;;;;;;;15.58;47.50;100339.25;10402042;28;20037;-77
2022/04/22 11:45:16;;;;;;;14.10;8.63;;;;;;;15.63;48.16;100341.94;10420769;28;20436;-78
2022/04/22 11:50:19;;;;;;;15.05;9.75;;;;;;;15.98;46.71;100345.25;10408961;28;20469;-80
2022/04/22 11:55:20;;;;;;;12.85;9.27;;;;;;;16.00;47.37;100332.06;10405536;28;20025;-78
2022/04/22 12:05:49;;;;;;;11.50;9.13;;;;;;;16.81;47.24;100339.47;10442959;28;20500;-78
2022/04/22 12:10:52;;;;;;;13.43;9.75;;;;;;;17.81;43.65;100320.34;10434299;28;20045;-84
2022/04/22 12:15:54;;;;;;;16.55;10.27;;;;;;;16.66;46.35;100323.41;10457742;28;20033;-82
2022/04/22 12:20:55;;;;;;;12.73;9.13;;;;;;;16.21;46.54;100322.72;10437563;28;20036;-82
2022/04/22 12:25:56;;;;;;;13.85;9.55;;;;;;;18.41;44.03;100297.91;10422049;28;20314;-81
2022/04/22 12:30:59;;;;;;;13.65;8.63;;;;;;;21.67;39.90;100290.75;10454833;28;20082;-82
2022/04/22 12:36:10;;;;;;;14.70;9.35;;;;;;;21.54;38.00;100287.28;10454806;28;20500;-79
2022/04/22 12:41:18;;;;;;;10.10;8.15;;;;;;;22.40;33.88;100287.47;10420810;28;20119;-80
2022/04/22 12:52:09;;;;;;;10.70;7.32;;;;;;;21.67;37.09;100282.78;10457039;28;20033;-78
2022/04/22 12:57:10;;;;;;;11.88;7.85;;;;;;;19.53;39.46;100272.69;10428989;28;20032;-78
2022/04/22 13:02:13;;;;;;;9.40;7.63;;;;;;;20.35;37.25;100261.19;10415328;28;20083;-77
2022/04/22 13:07:13;;;;;;;14.57;8.02;;;;;;;18.38;41.55;100263.44;10485805;28;20125;-77
2022/04/22 13:12:14;;;;;;;9.68;6.95;;;;;;;17.28;42.59;100266.91;10495615;28;20085;-77
2022/04/22 13:17:24;;;;;;;10.02;6.80;;;;;;;16.94;44.49;100265.63;10489178;28;20036;-77
2022/04/22 13:22:24;;;;;;;13.90;6.88;;;;;;;17.10;46.15;100259.69;10472408;28;20032;-77
2022/04/22 13:27:25;;;;;;;10.00;7.32;;;;;;;20.43;38.52;100254.06;10493407;28;20120;-78
2022/04/22 13:32:26;;;;;;;14.75;8.20;;;;;;;20.56;37.62;100248.72;10492977;28;20400;-76
2022/04/22 13:37:27;;;;;;;7.63;6.53;;;;;;;19.06;41.13;100254.03;10489412;28;20027;-77
2022/04/22 13:42:27;;;;;;;12.13;8.15;;;;;;;18.20;42.89;100254.50;10493615;28;20131;-77
2022/04/22 13:52:47;;;;;;;10.82;7.53;;;;;;;18.16;42.67;100256.22;10489920;28;20036;-76
2022/04/22 13:57:47;;;;;;;9.63;7.80;;;;;;;18.15;41.22;100243.00;10493989;28;20430;-77
2022/04/22 14:02:48;;;;;;;11.82;6.85;;;;;;;18.36;41.94;100228.09;10478539;28;20443;-76
2022/04/22 14:07:51;;;;;;;11.65;7.22;;;;;;;18.84;41.99;100241.56;10436406;28;20061;-76
2022/04/22 14:12:52;;;;;;;13.60;7.82;;;;;;;18.04;42.29;100229.66;10435991;28;20132;-76
2022/04/22 14:17:53;;;;;;;13.30;9.43;;;;;;;17.28;45.79;100231.66;10433842;28;20376;-76
2022/04/22 14:22:53;;;;;;;17.75;11.15;;;;;;;16.73;47.28;100240.72;10426965;28;20033;-75
2022/04/22 14:27:54;;;;;;;13.00;10.07;;;;;;;16.51;49.19;100245.72;10437556;28;20132;-75
2022/04/22 14:32:54;;;;;;;15.23;9.80;;;;;;;16.65;48.41;100239.75;10417948;28;20050;-75
2022/04/22 14:37:57;;;;;;;15.95;11.10;;;;;;;18.30;43.92;100221.00;10420386;28;20112;-74
2022/04/22 14:42:57;;;;;;;15.48;9.45;;;;;;;20.39;41.14;100218.66;10415340;28;20029;-77
2022/04/22 14:47:58;;;;;;;16.92;9.48;;;;;;;21.23;37.57;100210.31;10432547;28;20036;-77
2022/04/22 14:52:58;;;;;;;12.40;9.00;;;;;;;19.55;39.52;100217.84;10418817;28;20028;-76
2022/04/22 14:57:59;;;;;;;14.30;8.95;;;;;;;18.15;41.23;100227.09;10452764;28;20064;-77
2022/04/22 15:03:00;;;;;;;16.80;9.73;;;;;;;17.63;42.80;100227.56;10423353;28;20049;-79
2022/04/22 15:08:00;;;;;;;14.32;7.72;;;;;;;18.92;41.40;100215.97;10414624;28;20399;-81
2022/04/22 15:13:02;;;;;;;9.75;6.95;;;;;;;19.95;41.04;100211.69;10441885;28;20041;-80
2022/04/22 15:29:02;;;;;;;12.90;8.52;;;;;;;17.40;43.63;100212.38;10418664;28;20045;-77
2022/04/22 15:34:02;;;;;;;;;;;;;;;16.88;46.88;100218.84;10419735;28;20107;-76
2022/04/22 15:39:03;;;;;;;13.70;8.60;;;;;;;17.32;43.64;100202.59;10434105;28;20394;-76
2022/04/22 15:44:04;;;;;;;13.23;9.52;;;;;;;17.19;45.33;100205.13;10424190;28;20126;-77
2022/04/22 15:49:06;;;;;;;15.27;6.40;;;;;;;16.62;44.19;100224.72;10450619;28;20037;-77
2022/04/22 15:54:06;;;;;;;10.18;6.30;;;;;;;15.97;45.07;100213.28;10431698;28;20071;-77
2022/04/22 15:59:08;;;;;;;7.35;5.20;;;;;;;15.69;45.84;100218.06;10437615;28;20041;-77
2022/04/22 16:04:12;;;;;;;10.18;6.18;;;;;;;15.89;45.54;100218.44;10458762;28;20506;-77
2022/04/22 16:09:12;;;;;;;11.23;6.57;;;;;;;16.14;46.19;100217.03;10391558;28;20033;-77
2022/04/22 16:19:32;;;;;;;11.95;6.57;;;;;;;15.67;46.48;100217.16;10439734;28;20033;-77
2022/04/22 16:24:33;;;;;;;12.23;6.40;;;;;;;14.92;47.60;100218.47;10456854;28;20484;-77
2022/04/22 16:29:33;;;;;;;10.88;5.70;;;;;;;14.82;48.47;100222.69;10439294;28;20033;-77
2022/04/22 16:34:34;;;;;;;8.88;5.78;;;;;;;14.81;48.04;100217.38;10456985;28;20116;-77
2022/04/22 16:39:35;;;;;;;9.75;6.20;;;;;;;14.78;48.67;100214.69;10420492;28;20442;-78
2022/04/22 16:44:39;;;;;;;9.65;6.65;;;;;;;15.00;48.10;100216.00;10441572;28;20072;-77
2022/04/22 16:49:39;;;;;;;12.27;6.68;;;;;;;15.14;49.19;100210.97;10448951;28;20087;-78
2022/04/22 16:54:40;;;;;;;9.02;7.38;;;;;;;15.30;48.22;100212.16;10428565;28;20121;-78
2022/04/22 16:59:40;;;;;;;10.48;6.90;;;;;;;15.12;48.45;100217.97;10418124;28;20222;-78
2022/04/22 17:04:41;;;;;;;13.43;8.85;;;;;;;14.85;48.85;100216.59;10429837;28;20041;-77
2022/04/22 17:09:41;;;;;;;13.13;9.45;;;;;;;14.75;49.46;100215.53;10426445;28;20104;-79
2022/04/22 17:25:20;;;;;;;13.82;10.60;;;;;;;14.86;50.73;100206.94;10406606;28;20028;-77
2022/04/22 17:30:22;;;;;;;16.10;9.90;;;;;;;14.77;50.65;100202.38;10397512;28;20029;-77
2022/04/22 17:35:22;;;;;;;12.45;10.25;;;;;;;14.56;50.84;100210.72;10426426;28;20029;-78
2022/04/22 17:40:24;;;;;;;15.07;10.85;;;;;;;14.29;50.83;100214.53;10428269;28;20540;-79
2022/04/22 17:45:25;;;;;;;14.50;10.18;;;;;;;14.08;51.58;100213.19;10412609;28;20029;-79
2022/04/22 17:50:26;;;;;;;14.13;10.32;;;;;;;13.86;52.33;100211.78;10432732;28;20035;-80
2022/04/22 17:55:27;;;;;;;14.45;9.70;;;;;;;13.65;52.45;100202.53;10417237;28;20578;-79
2022/04/22 18:00:27;;;;;;;14.00;10.77;;;;;;;13.41;52.59;100208.91;10432669;28;20083;-79
2022/04/22 18:05:30;;;;;;;14.32;9.65;;;;;;;13.26;54.02;100217.31;10419316;28;20073;-79
2022/04/22 18:10:34;;;;;;;12.38;10.13;;;;;;;13.12;53.74;100221.31;10427786;28;20254;-79
2022/04/22 18:20:54;;;;;;;19.95;9.80;;;;;;;12.77;54.77;100225.63;10414117;28;20120;-79
2022/04/22 18:25:56;;;;;;;17.00;10.77;;;;;;;12.73;54.90;100233.38;10405584;28;20033;-79
2022/04/22 18:30:56;;;;;;;15.07;9.40;;;;;;;12.67;55.09;100231.47;10406191;28;20524;-79
2022/04/22 18:35:57;;;;;;;13.02;9.35;;;;;;;12.44;55.88;100241.28;10407808;28;20021;-79
2022/04/22 18:40:59;;;;;;;13.00;10.27;;;;;;;12.30;56.36;100243.50;10417216;28;20044;-79
2022/04/22 18:46:00;;;;;;;15.65;10.27;;;;;;;11.90;57.80;100253.56;10423327;28;20048;-78
2022/04/22 18:51:04;;;;;;;14.02;10.32;;;;;;;11.74;58.72;100252.19;10450876;28;20121;-78
2022/04/22 18:56:04;;;;;;;16.70;11.10;;;;;;;11.46;59.60;100249.53;10424277;28;20095;-78
2022/04/22 19:01:05;;;;;;;13.30;10.20;;;;;;;11.47;59.52;100255.66;10428246;28;20170;-78
2022/04/22 19:06:05;;;;;;;18.55;11.10;;;;;;;11.66;58.87;100253.66;10460626;28;20045;-78
2022/04/22 19:11:07;;;;;;;14.90;10.68;;;;;;;11.75;58.03;100267.09;10494571;28;20036;-78
2022/04/22 19:16:08;;;;;;;17.77;11.93;;;;;;;11.92;58.03;100274.63;10447196;28;20040;-78
2022/04/22 19:21:11;;;;;;;16.92;9.73;;;;;;;12.07;58.13;100264.66;10459023;28;20091;-78
2022/04/22 19:26:12;;;;;;;15.02;11.10;;;;;;;12.01;58.07;100269.69;10474820;28;20062;-81
2022/04/22 19:31:12;;;;;;;18.95;11.65;;;;;;;11.98;57.88;100264.31;10482546;28;20059;-79
2022/04/22 19:41:32;;;;;;;12.40;9.68;;;;;;;11.65;58.96;100265.88;10453219;28;20551;-78
2022/04/22 19:46:32;;;;;;;14.15;10.10;;;;;;;11.54;59.58;100259.38;10485750;28;20127;-79
2022/04/22 19:51:33;;;;;;;11.77;9.50;;;;;;;11.51;59.93;100262.81;10471824;28;20049;-79
2022/04/22 19:56:33;;;;;;;13.27;9.40;;;;;;;11.36;60.50;100275.38;10493587;28;20067;-78
2022/04/22 20:01:39;;;;;;;14.32;9.20;;;;;;;11.07;61.47;100278.72;10473460;28;20103;-78
2022/04/22 20:06:39;;;;;;;12.27;10.30;;;;;;;10.99;62.14;100283.69;10456751;28;20488;-78
2022/04/22 20:11:40;;;;;;;15.68;9.73;;;;;;;10.81;62.08;100276.03;10477938;28;20048;-78
2022/04/22 20:16:40;;;;;;;16.13;11.30;;;;;;;10.48;63.79;100284.41;10458181;28;20061;-78
2022/04/22 20:21:41;;;;;;;14.73;10.48;;;;;;;10.41;64.26;100282.38;10457073;28;20124;-78
2022/04/22 20:26:44;;;;;;;14.68;10.93;;;;;;;10.30;64.51;100276.69;10472553;28;20249;-78
2022/04/22 20:31:45;;;;;;;15.68;11.25;;;;;;;10.17;65.34;100291.00;10487936;28;20116;-78
2022/04/22 20:42:05;;;;;;;17.23;11.38;;;;;;;9.89;66.46;100289.00;10486458;28;20036;-78
2022/04/22 20:47:05;;;;;;;17.85;12.55;;;;;;;9.74;67.17;100284.03;10496548;28;20383;-78
2022/04/22 20:52:26;;;;;;;16.08;10.10;;;;;;;9.74;67.73;100281.41;10495896;28;20076;-78
2022/04/22 20:57:27;;;;;;;16.15;11.60;;;;;;;9.73;67.61;100283.16;10495235;28;20033;-78
2022/04/22 21:02:33;;;;;;;17.52;10.98;;;;;;;9.68;67.99;100288.16;10496912;28;20040;-78
2022/04/22 21:07:34;;;;;;;16.45;11.05;;;;;;;9.60;68.88;100291.31;10457374;28;20098;-79
2022/04/22 21:12:35;;;;;;;18.65;11.40;;;;;;;9.47;69.12;100287.25;10435112;28;20444;-78
2022/04/22 21:17:36;;;;;;;13.98;11.40;;;;;;;9.46;68.77;100286.38;10435151;28;20182;-78
2022/04/22 21:22:37;;;;;;;15.90;11.40;;;;;;;9.46;68.53;100289.00;10420818;28;20083;-78
2022/04/22 21:27:38;;;;;;;18.00;12.63;;;;;;;9.43;69.06;100298.41;10413391;28;20068;-78
2022/04/22 21:32:39;;;;;;;18.30;12.27;;;;;;;9.43;69.20;100299.31;10395300;28;20063;-78
2022/04/22 21:37:43;;;;;;;22.02;11.82;;;;;;;9.36;69.66;100294.66;10397230;28;20071;-77
2022/04/22 21:42:46;;;;;;;18.45;14.02;;;;;;;9.32;69.58;100301.44;10379718;28;20037;-78
2022/04/22 21:47:46;;;;;;;12.73;10.68;;;;;;;9.34;69.86;100305.00;10407169;28;20024;-78
2022/04/22 21:52:48;;;;;;;18.50;11.68;;;;;;;9.34;69.60;100302.41;10435073;28;20416;-77
2022/04/22 21:57:52;;;;;;;17.60;11.77;;;;;;;9.19;69.67;100300.03;10436550;28;20025;-77
2022/04/22 22:02:55;;;;;;;17.52;11.27;;;;;;;9.06;70.14;100293.34;10436320;28;20040;-77
2022/04/22 22:07:56;;;;;;;17.77;11.88;;;;;;;8.82;71.42;100299.25;10436241;28;20102;-77
2022/04/22 22:12:56;;;;;;;21.13;12.63;;;;;;;8.92;70.87;100297.06;10453610;28;20082;-77
2022/04/22 22:17:57;;;;;;;16.40;12.70;;;;;;;8.81;71.67;100292.25;10435997;28;20058;-78
2022/04/22 22:22:58;;;;;;;18.17;13.25;;;;;;;8.87;71.89;100286.44;10429719;28;20138;-78
2022/04/22 22:27:58;;;;;;;20.45;14.35;;;;;;;8.92;71.85;100286.63;10415038;28;20419;-77
2022/04/22 22:32:59;;;;;;;19.75;14.23;;;;;;;8.99;71.86;100287.81;10431340;28;20067;-77
2022/04/22 22:37:59;;;;;;;20.13;13.77;;;;;;;8.94;72.55;100284.97;10452422;28;20060;-78
2022/04/22 22:43:00;;;;;;;21.38;15.00;;;;;;;8.94;72.77;100285.88;10419218;28;20060;-77
2022/04/22 22:48:01;;;;;;;24.33;16.48;;;;;;;9.00;72.83;100279.16;10402337;28;20037;-77
2022/04/22 22:53:01;;;;;;;23.00;17.55;;;;;;;8.93;73.43;100284.09;10432787;28;20060;-78
2022/04/22 22:58:02;;;;;;;23.08;16.73;;;;;;;8.85;73.22;100277.63;10449032;28;20040;-77
2022/04/22 23:03:06;;;;;;;20.98;15.90;;;;;;;8.84;73.65;100274.94;10448373;28;20508;-77
2022/04/22 23:08:06;;;;;;;25.05;17.70;;;;;;;8.78;74.52;100281.66;10450674;28;20040;-77
2022/04/22 23:13:10;;;;;;;23.73;18.63;;;;;;;8.81;74.75;100271.38;10432279;28;20511;-77
2022/04/22 23:18:11;;;;;;;21.17;16.95;;;;;;;8.88;74.29;100267.34;10420801;28;20032;-77
2022/04/22 23:23:12;;;;;;;22.63;16.50;;;;;;;8.84;73.90;100260.19;10457043;28;20122;-77
2022/04/22 23:28:12;;;;;;;23.50;16.60;;;;;;;8.84;74.76;100268.03;10440560;28;20071;-77
2022/04/22 23:33:13;;;;;;;27.95;16.20;;;;;;;8.98;74.07;100260.78;10437631;28;20157;-77
2022/04/22 23:38:13;;;;;;;20.77;17.17;;;;;;;8.83;74.44;100261.00;10440349;28;20049;-77
2022/04/22 23:43:18;;;;;;;23.83;16.65;;;;;;;8.71;75.29;100268.28;10455639;28;20067;-78
2022/04/22 23:48:18;;;;;;;24.88;17.27;;;;;;;8.57;75.55;100270.25;10431147;28;20091;-77
2022/04/22 23:53:19;;;;;;;21.60;17.95;;;;;;;8.50;77.10;100259.53;10455321;28;20057;-77
2022/04/22 23:58:21;;;;;;;23.15;19.23;;;;;;;8.43;76.87;100254.81;10431129;28;20080;-78
